Kechi, Kansas
Current Conditions -  °F | °C
As of 5:54 PM on Wednesday 22 Oct 2014 (Local Time) from KAAO Reporting Station
Clear Clear  
Wind Chill: 23°   Ceiling: Unl
Heat Index: 23°   Visibility: 10mi
Dew Point: 12°   Wind: 14mph
Humidity: 48%   Direction: 180°S
Pressure: 30.04"   Gusts: 23mph
Location:  37.8°N, 97.28°W
Report Text: KAAO 222254Z AUTO 18012G20KT 10SM CLR 23/12 A3004 RMK AO2 SLP167 T02330117 $
Loading
Personal Weather Stations






























Interactive Weather Map
Tropical Storm Tracking
New forecast layout! Learn more

10-Day Weather Forecast

Advertisements
Track Severe Weather on mobile